Time;durP1;ratioP1;P1;durP2;ratioP2;P2;SDS_P1;SDS_P2;PMS_P1;PMS_P2;Temp;Humidity;BMP_temperature;BMP_pressure;BME280_temperature;BME280_humidity;BME280_pressure;Samples;Min_cycle;Max_cycle;Signal;HPM_P1;HPM_P2
2022/05/09 00:01:08;;;;;;;9.48;2.83;;;15.80;99.90;;;;;;5032155;28;20030;-68
2022/05/09 00:03:44;;;;;;;6.90;2.95;;;15.70;99.90;;;;;;5030400;28;20049;-68
2022/05/09 00:06:12;;;;;;;9.80;2.88;;;15.70;99.90;;;;;;5032518;28;20097;-68
2022/05/09 00:08:42;;;;;;;7.63;3.03;;;15.70;99.90;;;;;;5038041;28;20068;-68
2022/05/09 00:11:14;;;;;;;7.70;2.70;;;15.70;99.90;;;;;;5020032;28;20030;-66
2022/05/09 00:13:42;;;;;;;8.30;3.67;;;15.70;99.90;;;;;;5023712;28;20116;-68
2022/05/09 00:16:10;;;;;;;14.30;4.70;;;15.80;99.90;;;;;;5028413;28;20112;-67
2022/05/09 00:18:37;;;;;;;10.80;2.65;;;15.90;99.90;;;;;;5027240;28;20064;-67
2022/05/09 00:21:05;;;;;;;5.85;2.08;;;15.90;99.90;;;;;;5034036;28;20083;-67
2022/05/09 00:23:32;;;;;;;6.40;1.83;;;16.00;99.90;;;;;;5031247;28;20064;-67
2022/05/09 00:26:01;;;;;;;5.20;1.40;;;16.00;99.90;;;;;;5032712;28;20025;-68
2022/05/09 00:28:29;;;;;;;3.13;1.52;;;16.40;99.90;;;;;;5030590;28;20030;-68
2022/05/09 00:30:56;;;;;;;2.10;0.98;;;16.50;99.90;;;;;;5030654;28;20021;-68
2022/05/09 00:33:27;;;;;;;9.82;1.83;;;16.60;99.90;;;;;;5031098;28;20061;-68
2022/05/09 00:35:55;;;;;;;3.53;1.00;;;16.70;99.90;;;;;;5016937;28;20128;-68
2022/05/09 00:38:22;;;;;;;3.22;0.75;;;16.60;99.90;;;;;;5018010;28;20037;-68
2022/05/09 00:43:37;;;;;;;3.97;0.88;;;16.40;99.90;;;;;;5026705;28;20033;-67
2022/05/09 00:46:06;;;;;;;2.13;1.00;;;16.50;99.90;;;;;;5025607;28;20028;-68
2022/05/09 00:48:34;;;;;;;2.15;0.75;;;16.60;99.90;;;;;;5030714;28;20052;-70
2022/05/09 00:51:03;;;;;;;3.15;0.60;;;16.60;99.90;;;;;;5021855;28;20149;-68
2022/05/09 00:53:33;;;;;;;3.15;0.50;;;16.50;99.90;;;;;;5022429;28;20025;-69
2022/05/09 00:56:06;;;;;;;2.05;0.50;;;16.40;99.90;;;;;;5022300;28;20205;-69
2022/05/09 00:58:50;;;;;;;2.60;0.50;;;16.30;99.90;;;;;;5021317;28;20166;-68
2022/05/09 01:01:19;;;;;;;2.53;0.73;;;16.30;99.90;;;;;;5021850;28;20051;-66
2022/05/09 01:03:52;;;;;;;3.28;0.73;;;16.30;99.90;;;;;;5024914;28;20026;-68
2022/05/09 01:06:20;;;;;;;2.78;1.02;;;16.30;99.90;;;;;;5023860;28;20030;-67
2022/05/09 01:08:47;;;;;;;3.38;1.27;;;16.40;99.90;;;;;;5024615;28;20356;-67
2022/05/09 01:11:21;;;;;;;3.08;0.88;;;16.40;99.90;;;;;;5026521;28;20513;-67
2022/05/09 01:13:53;;;;;;;4.03;1.57;;;16.30;99.90;;;;;;5028140;28;20115;-67
2022/05/09 01:16:22;;;;;;;3.20;1.48;;;16.20;99.90;;;;;;5018532;28;20030;-69
2022/05/09 01:18:50;;;;;;;1.95;1.02;;;16.20;99.90;;;;;;5023035;28;20547;-68
2022/05/09 01:21:38;;;;;;;2.10;1.13;;;16.10;99.90;;;;;;5019853;28;20025;-67
2022/05/09 01:24:22;;;;;;;4.10;1.33;;;16.10;99.90;;;;;;5020009;28;20038;-67
2022/05/09 01:26:51;;;;;;;5.70;1.53;;;16.20;99.90;;;;;;5026009;28;20045;-67
2022/05/09 01:29:41;;;;;;;3.95;1.20;;;16.20;99.90;;;;;;5023918;28;20026;-68
2022/05/09 01:32:12;;;;;;;4.22;1.65;;;16.30;99.90;;;;;;5021229;28;20064;-68
2022/05/09 01:34:46;;;;;;;4.68;1.40;;;16.30;99.90;;;;;;5020287;28;20034;-68
2022/05/09 01:37:13;;;;;;;5.47;1.30;;;16.40;99.90;;;;;;5011695;28;20518;-69
2022/05/09 01:39:41;;;;;;;3.47;1.48;;;16.30;99.90;;;;;;5013429;28;20029;-68
2022/05/09 01:42:10;;;;;;;5.13;1.40;;;16.20;99.90;;;;;;5017527;28;20038;-68
2022/05/09 01:44:38;;;;;;;3.22;1.23;;;16.30;99.90;;;;;;5020503;28;20037;-68
2022/05/09 01:49:51;;;;;;;2.17;0.80;;;16.00;99.90;;;;;;5017513;28;20107;-68
2022/05/09 01:52:21;;;;;;;6.15;0.93;;;16.00;99.90;;;;;;5028298;28;20056;-68
2022/05/09 01:54:49;;;;;;;2.10;0.70;;;16.00;99.90;;;;;;5012477;28;20042;-68
2022/05/09 01:57:17;;;;;;;2.63;0.73;;;16.10;99.90;;;;;;5028410;28;20152;-68
2022/05/09 01:59:46;;;;;;;3.85;0.93;;;16.10;99.90;;;;;;5023577;28;20045;-68
2022/05/09 02:02:18;;;;;;;2.58;0.82;;;16.20;99.90;;;;;;5029857;28;20030;-68
2022/05/09 02:04:46;;;;;;;2.75;1.00;;;16.20;99.90;;;;;;5021959;28;20010;-68
2022/05/09 02:07:15;;;;;;;4.47;1.40;;;16.20;99.90;;;;;;5017486;28;20022;-68
2022/05/09 02:09:48;;;;;;;3.95;0.90;;;16.20;99.90;;;;;;5022838;28;20101;-68
2022/05/09 02:12:16;;;;;;;3.92;0.82;;;16.10;99.90;;;;;;5028374;28;20421;-68
2022/05/09 02:14:44;;;;;;;4.30;1.05;;;16.30;99.90;;;;;;5030131;28;20287;-68
2022/05/09 02:17:13;;;;;;;7.90;1.48;;;16.40;99.90;;;;;;5030746;28;20049;-68
2022/05/09 02:19:42;;;;;;;3.55;0.90;;;16.40;99.90;;;;;;5023451;28;20520;-68
2022/05/09 02:22:10;;;;;;;5.30;1.10;;;16.40;99.90;;;;;;5031761;28;20025;-68
2022/05/09 02:24:41;;;;;;;6.55;1.30;;;16.30;99.90;;;;;;5026319;28;20485;-69
2022/05/09 02:27:09;;;;;;;3.90;1.02;;;16.20;99.90;;;;;;5017527;28;20057;-68
2022/05/09 02:29:39;;;;;;;5.40;1.30;;;16.30;99.90;;;;;;5017654;28;20076;-68
2022/05/09 02:32:07;;;;;;;4.07;1.23;;;16.40;99.90;;;;;;5017152;28;20014;-68
2022/05/09 02:34:35;;;;;;;4.78;1.20;;;16.50;99.90;;;;;;5029344;28;20022;-68
2022/05/09 02:37:03;;;;;;;3.45;1.13;;;16.50;99.90;;;;;;5028834;28;20067;-68
2022/05/09 02:39:30;;;;;;;4.68;1.13;;;16.50;99.90;;;;;;5028368;28;20498;-68
2022/05/09 02:41:59;;;;;;;5.50;1.98;;;16.30;99.90;;;;;;5030540;28;20022;-68
2022/05/09 02:44:27;;;;;;;6.30;0.98;;;16.30;99.90;;;;;;5023055;28;20638;-68
2022/05/09 02:46:55;;;;;;;8.57;2.13;;;16.30;99.90;;;;;;5021382;28;20041;-68
2022/05/09 02:49:22;;;;;;;6.45;1.75;;;16.40;99.90;;;;;;5014426;28;20429;-68
2022/05/09 02:51:52;;;;;;;4.60;1.30;;;16.50;99.90;;;;;;5017354;28;20136;-68
2022/05/09 02:54:19;;;;;;;3.65;1.92;;;16.30;99.90;;;;;;5024285;28;20033;-68
2022/05/09 02:56:46;;;;;;;5.55;1.20;;;16.30;99.90;;;;;;5026193;28;20021;-68
2022/05/09 02:59:14;;;;;;;6.78;1.85;;;16.40;99.90;;;;;;5030923;28;20545;-68
2022/05/09 03:01:41;;;;;;;7.97;1.48;;;16.50;99.90;;;;;;5016454;28;20022;-67
2022/05/09 03:06:54;;;;;;;6.70;1.50;;;16.60;99.90;;;;;;5012516;28;20033;-68
2022/05/09 03:09:21;;;;;;;11.23;1.60;;;16.50;99.90;;;;;;5025014;28;20068;-68
2022/05/09 03:11:49;;;;;;;7.82;1.60;;;16.50;99.90;;;;;;5017887;28;20052;-68
2022/05/09 03:14:16;;;;;;;5.63;1.13;;;16.50;99.90;;;;;;5021542;28;20108;-68
2022/05/09 03:16:43;;;;;;;6.10;1.25;;;16.50;99.90;;;;;;5021689;28;20021;-69
2022/05/09 03:19:11;;;;;;;8.35;1.67;;;16.40;99.90;;;;;;5023083;28;20465;-69
2022/05/09 03:21:38;;;;;;;6.60;1.45;;;16.40;99.90;;;;;;5013998;28;20022;-68
2022/05/09 03:24:06;;;;;;;2.65;0.95;;;16.50;99.90;;;;;;5020602;28;20482;-69
2022/05/09 03:26:33;;;;;;;5.53;1.58;;;16.60;99.90;;;;;;5019265;28;20040;-68
2022/05/09 03:29:00;;;;;;;4.32;1.20;;;16.60;99.90;;;;;;5024044;28;20112;-69
2022/05/09 03:31:29;;;;;;;4.78;1.48;;;16.60;99.90;;;;;;5018089;28;20029;-68
2022/05/09 03:33:57;;;;;;;5.18;1.20;;;16.40;99.90;;;;;;5028346;28;20021;-69
2022/05/09 03:36:24;;;;;;;5.70;1.83;;;16.40;99.90;;;;;;5019984;28;20026;-68
2022/05/09 03:38:51;;;;;;;9.05;1.40;;;16.40;99.90;;;;;;5027958;28;20436;-68
2022/05/09 03:41:20;;;;;;;5.20;1.35;;;16.40;99.90;;;;;;5025709;28;20026;-68
2022/05/09 03:43:48;;;;;;;7.97;2.22;;;16.50;99.90;;;;;;5030356;28;20021;-68
2022/05/09 03:46:15;;;;;;;5.68;1.52;;;16.50;99.90;;;;;;5016896;28;20413;-69
2022/05/09 03:48:43;;;;;;;5.28;1.40;;;16.50;99.90;;;;;;5016455;28;20394;-69
2022/05/09 03:51:10;;;;;;;7.15;1.58;;;16.60;99.90;;;;;;5032683;28;20033;-68
2022/05/09 03:53:37;;;;;;;4.90;1.23;;;16.60;99.90;;;;;;5024739;28;20363;-69
2022/05/09 03:56:07;;;;;;;8.38;2.10;;;16.50;99.90;;;;;;5024485;28;20030;-70
2022/05/09 03:58:35;;;;;;;4.75;1.40;;;16.50;99.90;;;;;;5025971;28;20030;-68
2022/05/09 04:01:02;;;;;;;6.85;1.30;;;16.50;99.90;;;;;;5019959;28;20037;-68
2022/05/09 04:03:30;;;;;;;3.67;0.93;;;16.50;99.90;;;;;;5031765;28;20081;-68
2022/05/09 04:05:58;;;;;;;6.93;1.13;;;16.40;99.90;;;;;;5020378;28;20497;-69
2022/05/09 04:08:26;;;;;;;5.28;0.90;;;16.40;99.90;;;;;;5023559;28;20026;-68
2022/05/09 04:10:55;;;;;;;6.25;1.08;;;16.50;99.90;;;;;;5022726;28;20029;-68
2022/05/09 04:13:22;;;;;;;6.60;0.90;;;16.60;99.90;;;;;;5023115;28;20479;-68
2022/05/09 04:18:42;;;;;;;5.78;1.48;;;16.60;99.90;;;;;;5021060;28;20080;-68
2022/05/09 04:21:12;;;;;;;4.90;0.80;;;16.60;99.90;;;;;;5023858;28;20022;-69
2022/05/09 04:23:40;;;;;;;3.83;0.88;;;16.70;99.90;;;;;;5026881;28;20104;-67
2022/05/09 04:26:08;;;;;;;5.10;1.65;;;16.70;99.90;;;;;;5022929;28;20379;-68
2022/05/09 04:28:35;;;;;;;5.65;1.40;;;16.90;99.90;;;;;;5030373;28;20044;-68
2022/05/09 04:31:02;;;;;;;4.05;0.85;;;17.10;99.90;;;;;;5019379;28;20032;-68
2022/05/09 04:33:30;;;;;;;3.72;0.90;;;17.10;99.90;;;;;;5030633;28;20022;-68
2022/05/09 04:35:58;;;;;;;5.78;1.33;;;17.10;99.90;;;;;;5021134;28;20029;-68
2022/05/09 04:38:26;;;;;;;7.60;0.95;;;17.10;99.90;;;;;;5024835;28;20518;-68
2022/05/09 04:40:56;;;;;;;5.00;1.33;;;17.10;99.90;;;;;;5029709;28;20029;-68
2022/05/09 04:43:28;;;;;;;8.23;1.08;;;17.30;99.90;;;;;;5019157;28;20105;-68
2022/05/09 04:46:00;;;;;;;3.28;1.30;;;17.30;99.90;;;;;;5023927;28;20025;-68
2022/05/09 04:48:29;;;;;;;5.03;1.10;;;17.30;99.90;;;;;;5023250;28;20391;-69
2022/05/09 04:50:56;;;;;;;3.85;0.82;;;17.40;99.90;;;;;;5018585;28;20021;-68
2022/05/09 04:53:25;;;;;;;5.72;0.90;;;17.30;99.90;;;;;;5028684;28;20104;-69
2022/05/09 04:55:55;;;;;;;3.47;1.02;;;17.20;99.90;;;;;;5018117;28;20033;-68
2022/05/09 04:58:22;;;;;;;5.47;1.02;;;17.30;99.90;;;;;;5031824;28;20038;-68
2022/05/09 05:00:49;;;;;;;5.40;0.70;;;17.40;99.90;;;;;;5020970;28;20467;-68
2022/05/09 05:03:17;;;;;;;5.63;1.17;;;17.30;99.90;;;;;;5018094;28;20026;-68
2022/05/09 05:05:45;;;;;;;5.65;1.08;;;17.40;99.90;;;;;;5026226;28;20525;-66
2022/05/09 05:08:15;;;;;;;3.95;0.68;;;17.30;99.90;;;;;;5023198;28;20057;-65
2022/05/09 05:10:43;;;;;;;4.22;0.68;;;17.30;99.90;;;;;;5025051;28;20017;-66
2022/05/09 05:13:12;;;;;;;5.10;0.73;;;17.30;99.90;;;;;;5028055;28;20029;-69
2022/05/09 05:15:40;;;;;;;4.88;0.77;;;17.40;99.90;;;;;;5029159;28;20432;-68
2022/05/09 05:18:07;;;;;;;7.53;0.90;;;17.40;99.90;;;;;;5026451;28;20116;-69
2022/05/09 05:20:35;;;;;;;6.63;1.35;;;17.50;99.90;;;;;;5026953;28;20030;-68
2022/05/09 05:23:03;;;;;;;6.65;0.98;;;17.60;99.90;;;;;;5030283;28;20037;-68
2022/05/09 05:25:31;;;;;;;7.03;0.70;;;17.60;99.90;;;;;;5023504;28;20021;-68
2022/05/09 05:27:58;;;;;;;4.13;1.02;;;17.50;99.90;;;;;;5015964;28;20061;-66
2022/05/09 05:30:26;;;;;;;4.72;1.33;;;17.60;99.90;;;;;;5025813;28;20477;-66
2022/05/09 05:32:55;;;;;;;10.95;1.60;;;17.60;99.90;;;;;;5032510;28;20109;-66
2022/05/09 05:35:24;;;;;;;4.38;0.95;;;17.60;99.90;;;;;;5032570;28;20036;-66
2022/05/09 05:37:52;;;;;;;4.30;1.17;;;17.60;99.90;;;;;;5033361;28;20038;-66
2022/05/09 05:40:19;;;;;;;7.22;1.17;;;17.50;99.90;;;;;;5024274;28;20080;-66
2022/05/09 05:42:52;;;;;;;5.03;1.08;;;17.50;99.90;;;;;;5015627;28;20047;-66
2022/05/09 05:45:22;;;;;;;6.63;1.02;;;17.60;99.90;;;;;;5020619;28;20473;-66
2022/05/09 05:47:50;;;;;;;7.60;1.45;;;17.60;99.90;;;;;;5023256;28;20382;-66
2022/05/09 05:50:19;;;;;;;5.65;1.40;;;17.60;99.90;;;;;;5023485;28;20030;-66
2022/05/09 05:52:47;;;;;;;8.77;0.90;;;17.60;99.90;;;;;;5014573;28;20085;-66
2022/05/09 05:55:14;;;;;;;8.60;1.48;;;17.50;99.90;;;;;;5028615;28;20541;-66
2022/05/09 05:57:43;;;;;;;4.65;1.13;;;17.50;99.90;;;;;;5032001;28;20037;-66
2022/05/09 06:00:18;;;;;;;5.43;0.90;;;17.40;99.90;;;;;;5020227;28;20025;-66
2022/05/09 06:02:46;;;;;;;5.28;1.65;;;17.40;99.90;;;;;;5018557;28;20021;-67
2022/05/09 06:05:16;;;;;;;7.20;1.10;;;17.40;99.90;;;;;;5021777;28;20033;-66
2022/05/09 06:07:43;;;;;;;4.28;1.50;;;17.40;99.90;;;;;;5019275;28;20026;-66
2022/05/09 06:10:13;;;;;;;9.20;1.80;;;17.20;99.90;;;;;;5028094;28;20017;-69
2022/05/09 06:12:40;;;;;;;9.45;2.00;;;17.10;99.90;;;;;;5018705;28;20027;-68
2022/05/09 06:17:56;;;;;;;6.38;1.67;;;16.90;99.90;;;;;;5016108;28;20052;-68
2022/05/09 06:20:24;;;;;;;6.68;1.45;;;16.80;99.90;;;;;;5017449;28;20017;-68
2022/05/09 06:22:54;;;;;;;3.10;1.27;;;16.80;99.90;;;;;;5016756;28;20025;-68
2022/05/09 06:25:22;;;;;;;4.65;1.40;;;16.60;99.90;;;;;;5018872;28;20438;-69
2022/05/09 06:27:50;;;;;;;4.35;1.13;;;16.50;99.90;;;;;;5019246;28;20436;-69
2022/05/09 06:30:19;;;;;;;3.33;0.75;;;16.40;99.90;;;;;;5023222;28;20610;-68
2022/05/09 06:32:47;;;;;;;2.95;1.05;;;16.20;99.90;;;;;;5022493;28;20083;-68
2022/05/09 06:35:23;;;;;;;4.60;0.80;;;16.20;99.90;;;;;;5014134;28;20029;-68
2022/05/09 06:37:55;;;;;;;2.85;0.77;;;16.10;99.90;;;;;;5019174;28;20030;-68
2022/05/09 06:40:26;;;;;;;5.40;0.80;;;16.00;99.90;;;;;;5024602;28;20359;-69
2022/05/09 06:42:55;;;;;;;4.38;1.00;;;16.00;99.90;;;;;;5015795;28;20029;-69
2022/05/09 06:45:23;;;;;;;2.53;1.05;;;16.00;99.90;;;;;;5020814;28;20021;-68
2022/05/09 06:47:53;;;;;;;5.95;1.58;;;15.90;99.90;;;;;;5023147;28;20060;-69
2022/05/09 06:50:25;;;;;;;3.10;1.33;;;16.00;99.90;;;;;;5014831;28;20026;-69
2022/05/09 06:52:52;;;;;;;3.92;1.50;;;16.00;99.90;;;;;;5019829;28;20057;-68
2022/05/09 06:55:20;;;;;;;7.85;1.63;;;15.90;99.90;;;;;;5020911;28;20048;-68
2022/05/09 06:57:47;;;;;;;5.18;1.60;;;15.90;99.90;;;;;;5017213;28;20168;-69
2022/05/09 07:00:18;;;;;;;5.47;2.72;;;15.90;99.90;;;;;;5027803;28;20029;-69
2022/05/09 07:02:46;;;;;;;13.23;4.07;;;15.90;99.90;;;;;;5031421;28;20036;-69
2022/05/09 07:05:16;;;;;;;6.32;2.42;;;15.90;99.90;;;;;;5026071;28;20543;-68
2022/05/09 07:07:44;;;;;;;7.07;2.05;;;15.90;99.90;;;;;;5026430;28;20031;-68
2022/05/09 07:10:14;;;;;;;9.25;2.30;;;15.90;99.90;;;;;;5027002;28;20517;-68
2022/05/09 07:12:47;;;;;;;4.10;2.15;;;15.90;99.90;;;;;;5026016;28;20025;-68
2022/05/09 07:15:17;;;;;;;12.83;3.67;;;16.00;99.90;;;;;;5032374;28;20029;-68
2022/05/09 07:17:45;;;;;;;7.70;3.33;;;16.00;99.90;;;;;;5030934;28;20429;-69
2022/05/09 07:20:15;;;;;;;8.95;3.17;;;15.90;99.90;;;;;;5027827;28;20037;-68
2022/05/09 07:22:42;;;;;;;6.97;2.15;;;16.00;99.90;;;;;;5029965;28;20080;-69
2022/05/09 07:25:13;;;;;;;8.52;3.05;;;15.90;99.90;;;;;;5026794;28;20501;-69
2022/05/09 07:27:42;;;;;;;6.88;2.15;;;16.00;99.90;;;;;;5025083;28;20021;-69
2022/05/09 07:30:15;;;;;;;8.60;2.03;;;15.90;99.90;;;;;;5028125;28;20030;-69
2022/05/09 07:32:43;;;;;;;10.25;2.03;;;15.90;99.90;;;;;;5026307;28;20169;-69
2022/05/09 07:35:13;;;;;;;4.30;1.63;;;15.90;99.90;;;;;;5026030;28;20362;-69
2022/05/09 07:37:41;;;;;;;4.20;1.70;;;15.90;99.90;;;;;;5029189;28;20397;-69
2022/05/09 07:40:13;;;;;;;7.47;1.60;;;15.80;99.90;;;;;;5027096;28;20033;-68
2022/05/09 07:42:46;;;;;;;5.22;1.48;;;15.80;99.90;;;;;;5026510;28;20036;-68
2022/05/09 07:45:16;;;;;;;9.13;1.92;;;15.80;99.90;;;;;;5025106;28;20029;-68
2022/05/09 07:47:44;;;;;;;6.45;1.83;;;15.80;99.90;;;;;;5027564;28;20077;-68
2022/05/09 07:50:13;;;;;;;4.07;1.30;;;15.80;99.90;;;;;;5027294;28;20030;-69
2022/05/09 07:52:43;;;;;;;8.98;1.50;;;15.80;99.90;;;;;;5026468;28;20065;-69
2022/05/09 07:55:15;;;;;;;10.45;2.45;;;15.80;99.90;;;;;;5030387;28;20025;-69
2022/05/09 07:57:43;;;;;;;7.50;2.15;;;15.80;99.90;;;;;;5034214;28;20041;-69
2022/05/09 08:00:11;;;;;;;6.43;1.42;;;15.70;99.90;;;;;;5027814;28;20033;-69
2022/05/09 08:02:40;;;;;;;10.15;1.85;;;15.80;99.90;;;;;;5021153;28;20026;-69
2022/05/09 08:05:10;;;;;;;7.00;2.33;;;15.70;99.90;;;;;;5031425;28;20029;-68
2022/05/09 08:07:39;;;;;;;8.80;1.98;;;15.80;99.90;;;;;;5028609;28;20038;-69
2022/05/09 08:10:08;;;;;;;7.40;1.58;;;15.70;99.90;;;;;;5031420;28;20029;-68
2022/05/09 08:12:36;;;;;;;5.47;1.83;;;15.70;99.90;;;;;;5030831;28;20040;-69
2022/05/09 08:15:03;;;;;;;5.72;2.20;;;15.70;99.90;;;;;;5027272;28;20390;-69
2022/05/09 08:17:32;;;;;;;6.10;2.25;;;15.70;99.90;;;;;;5024146;28;20124;-69
2022/05/09 08:20:00;;;;;;;5.85;1.60;;;15.70;99.90;;;;;;5015734;28;20034;-69
2022/05/09 08:22:31;;;;;;;5.85;1.85;;;15.70;99.90;;;;;;5023500;28;20032;-69
2022/05/09 08:25:02;;;;;;;5.28;2.25;;;15.80;99.90;;;;;;5016569;28;20605;-69
2022/05/09 08:27:29;;;;;;;7.45;1.63;;;15.80;99.90;;;;;;5015556;28;20084;-68
2022/05/09 08:29:58;;;;;;;6.90;2.08;;;15.70;99.90;;;;;;5025943;28;20029;-69
2022/05/09 08:32:27;;;;;;;6.68;2.35;;;15.80;99.90;;;;;;5026298;28;20021;-66
2022/05/09 08:34:55;;;;;;;5.22;1.60;;;15.70;99.90;;;;;;5017962;28;20041;-66
2022/05/09 08:37:23;;;;;;;6.68;2.03;;;15.70;99.90;;;;;;5021181;28;20034;-66
2022/05/09 08:39:50;;;;;;;8.18;2.08;;;15.70;99.90;;;;;;5021343;28;20029;-67
2022/05/09 08:42:51;;;;;;;6.97;1.80;;;15.70;99.90;;;;;;5015209;28;20033;-67
2022/05/09 08:45:37;;;;;;;9.75;5.05;;;15.70;99.90;;;;;;5010408;28;20502;-67
2022/05/09 08:48:16;;;;;;;11.23;4.93;;;15.70;99.90;;;;;;5019160;28;20041;-67
2022/05/09 08:50:57;;;;;;;7.18;2.63;;;15.70;99.90;;;;;;5019549;28;20026;-67
2022/05/09 08:53:26;;;;;;;4.03;2.65;;;15.70;99.90;;;;;;5020930;28;20121;-67
2022/05/09 08:55:57;;;;;;;6.40;2.47;;;15.70;99.90;;;;;;5017282;28;20482;-67
2022/05/09 08:58:45;;;;;;;8.40;2.97;;;15.70;99.90;;;;;;5022544;28;20512;-67
2022/05/09 09:01:23;;;;;;;8.23;3.35;;;15.70;99.90;;;;;;5016250;28;20110;-67
2022/05/09 09:04:02;;;;;;;7.05;2.47;;;15.70;99.90;;;;;;5014240;28;20112;-67
2022/05/09 09:06:51;;;;;;;5.60;3.03;;;15.70;99.90;;;;;;5026973;28;20030;-67
2022/05/09 09:10:02;;;;;;;8.27;2.80;;;15.70;99.90;;;;;;5017977;28;20044;-67
2022/05/09 09:12:46;;;;;;;7.43;2.55;;;15.70;99.90;;;;;;5018546;28;20382;-67
2022/05/09 09:15:26;;;;;;;7.38;3.13;;;15.70;99.90;;;;;;5017412;28;20382;-67
2022/05/09 09:18:18;;;;;;;7.60;2.28;;;15.60;99.90;;;;;;5014841;28;20109;-67
2022/05/09 09:21:46;;;;;;;7.57;2.65;;;15.60;99.90;;;;;;5021401;28;20374;-67
2022/05/09 09:24:34;;;;;;;7.22;2.30;;;15.60;99.90;;;;;;5016105;28;20045;-67
2022/05/09 09:27:31;;;;;;;8.88;1.80;;;15.60;99.90;;;;;;5020004;28;20053;-67
2022/05/09 09:30:01;;;;;;;7.78;2.38;;;15.60;99.90;;;;;;5014984;28;20121;-68
2022/05/09 09:32:29;;;;;;;8.02;1.92;;;15.60;99.90;;;;;;5023079;28;20478;-68
2022/05/09 09:35:56;;;;;;;5.05;1.73;;;15.60;99.90;;;;;;5025942;28;20359;-68
2022/05/09 09:38:53;;;;;;;7.65;2.22;;;15.50;99.90;;;;;;5015830;28;20232;-67
2022/05/09 09:41:27;;;;;;;6.05;2.00;;;15.50;99.90;;;;;;5017102;28;20056;-68
2022/05/09 09:44:19;;;;;;;8.23;2.20;;;15.50;99.90;;;;;;5017949;28;20030;-67
2022/05/09 09:47:25;;;;;;;5.93;1.50;;;15.40;99.90;;;;;;5018531;28;20048;-68
2022/05/09 09:50:14;;;;;;;8.77;2.35;;;15.50;99.90;;;;;;5022748;28;20029;-68
2022/05/09 09:52:52;;;;;;;9.68;2.25;;;15.40;99.90;;;;;;5013634;28;20050;-68
2022/05/09 09:55:33;;;;;;;5.18;1.70;;;15.40;99.90;;;;;;5023302;28;20041;-68
2022/05/09 09:58:24;;;;;;;8.45;2.65;;;15.40;99.90;;;;;;5027101;28;20041;-68
2022/05/09 10:01:20;;;;;;;6.50;2.63;;;15.40;99.90;;;;;;5016853;28;20052;-68
2022/05/09 10:04:04;;;;;;;6.07;2.33;;;15.30;99.90;;;;;;5013379;28;20038;-68
2022/05/09 10:06:31;;;;;;;6.28;2.00;;;15.30;99.90;;;;;;5022278;28;20022;-68
2022/05/09 10:09:06;;;;;;;6.63;2.20;;;15.30;99.90;;;;;;5030038;28;20093;-67
2022/05/09 10:11:34;;;;;;;5.05;1.83;;;15.30;99.90;;;;;;5031788;28;20021;-68
2022/05/09 10:14:05;;;;;;;2.97;1.50;;;15.30;99.90;;;;;;5024016;28;20497;-68
2022/05/09 10:16:41;;;;;;;6.72;2.10;;;15.30;99.90;;;;;;5026859;28;20026;-67
2022/05/09 10:19:10;;;;;;;9.00;2.40;;;15.30;99.90;;;;;;5030113;28;20037;-67
2022/05/09 10:24:51;;;;;;;7.07;2.35;;;15.30;99.90;;;;;;5017868;28;20113;-68
2022/05/09 10:27:25;;;;;;;7.28;2.38;;;15.30;99.90;;;;;;5019131;28;20029;-68
2022/05/09 10:29:58;;;;;;;5.75;1.90;;;15.40;99.90;;;;;;5023980;28;20013;-68
2022/05/09 10:32:46;;;;;;;5.23;1.63;;;15.30;99.90;;;;;;5030604;28;20079;-68
2022/05/09 10:35:22;;;;;;;3.55;1.98;;;15.30;99.90;;;;;;5015448;28;20291;-68
2022/05/09 10:38:01;;;;;;;17.90;2.13;;;15.40;99.90;;;;;;5022177;28;20096;-68
2022/05/09 10:40:42;;;;;;;3.95;1.50;;;15.30;99.90;;;;;;5023435;28;20025;-68
2022/05/09 10:43:50;;;;;;;5.90;1.50;;;15.40;99.90;;;;;;5029496;28;20052;-67
2022/05/09 10:46:20;;;;;;;4.25;1.33;;;15.30;99.90;;;;;;5026772;28;20124;-67
2022/05/09 10:49:26;;;;;;;5.07;1.55;;;15.30;99.90;;;;;;5031464;28;20029;-68
2022/05/09 10:52:15;;;;;;;5.18;1.85;;;15.40;99.90;;;;;;5018866;28;20046;-67
2022/05/09 10:54:52;;;;;;;4.70;1.58;;;15.30;99.90;;;;;;5025599;28;20050;-68
2022/05/09 10:57:47;;;;;;;7.38;1.80;;;15.30;99.90;;;;;;5013584;28;20034;-68
2022/05/09 11:00:19;;;;;;;;;;;15.30;99.90;;;;;;5015943;28;20067;-67
2022/05/09 11:03:00;;;;;;;8.07;2.67;;;15.30;99.90;;;;;;5025964;28;19913;-68
2022/05/09 11:05:44;;;;;;;4.28;1.55;;;15.30;99.90;;;;;;5015665;28;20037;-68
2022/05/09 11:08:49;;;;;;;8.02;1.98;;;15.30;99.90;;;;;;5027072;28;20124;-67
2022/05/09 11:11:25;;;;;;;7.35;2.08;;;15.30;99.90;;;;;;5019659;28;20224;-66
2022/05/09 11:14:06;;;;;;;4.35;1.30;;;15.30;99.90;;;;;;5021750;28;20025;-68
2022/05/09 11:16:53;;;;;;;7.85;1.50;;;15.30;99.90;;;;;;5029840;28;20021;-68
2022/05/09 11:19:42;;;;;;;6.45;1.73;;;15.30;99.90;;;;;;5022711;28;20498;-68
2022/05/09 11:22:18;;;;;;;3.78;1.65;;;15.30;99.90;;;;;;5027456;28;20029;-68
2022/05/09 11:25:22;;;;;;;9.45;1.70;;;15.30;99.90;;;;;;5024599;28;20029;-68
2022/05/09 11:28:25;;;;;;;5.18;1.33;;;15.30;99.90;;;;;;5015548;28;20060;-68
2022/05/09 11:31:10;;;;;;;5.43;1.35;;;15.30;99.90;;;;;;5022401;28;20029;-68
2022/05/09 11:33:52;;;;;;;4.78;1.50;;;15.30;99.90;;;;;;5021645;28;20018;-68
2022/05/09 11:36:38;;;;;;;6.80;1.70;;;15.20;99.90;;;;;;5018410;28;20032;-68
2022/05/09 11:39:32;;;;;;;10.82;2.03;;;15.30;99.90;;;;;;5018328;28;20121;-68
2022/05/09 11:45:32;;;;;;;7.03;3.28;;;15.20;99.90;;;;;;5014890;28;20509;-68
2022/05/09 11:48:31;;;;;;;7.95;2.92;;;15.20;99.90;;;;;;5026447;28;20494;-68
2022/05/09 11:51:19;;;;;;;8.07;2.00;;;15.20;99.90;;;;;;5029771;28;20021;-68
2022/05/09 11:53:54;;;;;;;5.70;1.50;;;15.20;99.90;;;;;;5022556;28;20030;-68
2022/05/09 11:56:22;;;;;;;3.70;1.85;;;15.20;99.90;;;;;;5020255;28;20026;-68
2022/05/09 11:58:49;;;;;;;7.95;2.58;;;15.30;99.90;;;;;;5017462;28;20037;-68
2022/05/09 12:01:16;;;;;;;6.25;1.85;;;15.30;99.90;;;;;;5022558;28;20021;-67
2022/05/09 12:03:44;;;;;;;3.58;1.40;;;15.30;99.90;;;;;;5029139;28;20088;-67
2022/05/09 12:06:29;;;;;;;6.13;1.70;;;15.30;99.90;;;;;;5029263;28;20432;-67
2022/05/09 12:08:58;;;;;;;4.38;1.90;;;15.30;99.90;;;;;;5019203;28;20438;-67
2022/05/09 12:11:33;;;;;;;7.68;2.28;;;15.40;99.90;;;;;;5020078;28;20027;-67
2022/05/09 12:14:04;;;;;;;7.53;3.00;;;15.30;99.90;;;;;;5018713;28;20061;-67
2022/05/09 12:16:42;;;;;;;5.43;3.03;;;15.30;99.90;;;;;;5031486;28;20152;-67
2022/05/09 12:19:31;;;;;;;7.75;2.83;;;15.30;99.90;;;;;;5025497;28;20053;-67
2022/05/09 12:22:49;;;;;;;11.32;3.22;;;15.30;99.90;;;;;;5017994;28;20555;-67
2022/05/09 12:25:34;;;;;;;7.07;2.60;;;15.30;99.90;;;;;;5023550;28;20041;-67
2022/05/09 12:28:18;;;;;;;6.00;2.65;;;15.30;99.90;;;;;;5018651;28;20025;-67
2022/05/09 12:30:56;;;;;;;6.63;1.90;;;15.30;99.90;;;;;;5021378;28;20072;-68
2022/05/09 12:33:51;;;;;;;6.53;1.98;;;15.20;99.90;;;;;;5031112;28;20134;-67
2022/05/09 12:36:25;;;;;;;8.75;2.72;;;15.20;99.90;;;;;;5025558;28;20092;-67
2022/05/09 12:38:54;;;;;;;8.07;2.30;;;15.20;99.90;;;;;;5023301;28;20084;-67
2022/05/09 12:41:46;;;;;;;8.02;3.40;;;15.10;99.90;;;;;;5020698;28;20043;-67
2022/05/09 12:44:21;;;;;;;8.93;2.40;;;15.10;99.90;;;;;;5023102;28;20026;-67
2022/05/09 12:47:02;;;;;;;4.50;2.50;;;15.10;99.90;;;;;;5018679;28;20034;-67
2022/05/09 12:49:41;;;;;;;5.22;2.20;;;15.10;99.90;;;;;;5024952;28;20036;-67
2022/05/09 12:52:11;;;;;;;8.05;4.03;;;15.10;99.90;;;;;;5028588;28;20091;-67
2022/05/09 12:55:51;;;;;;;6.32;3.08;;;15.10;99.90;;;;;;5019500;28;20024;-67
2022/05/09 12:57:38;;;;;;;4.40;2.67;;;15.00;99.90;;;;;;5018014;28;20818;-67
2022/05/09 13:00:27;;;;;;;7.72;2.83;;;15.00;99.90;;;;;;5023770;28;20100;-67
2022/05/09 13:02:55;;;;;;;7.00;3.38;;;15.00;99.90;;;;;;5021704;28;20033;-67
2022/05/09 13:05:41;;;;;;;5.13;2.63;;;15.10;99.90;;;;;;5020048;28;20021;-67
2022/05/09 13:08:10;;;;;;;8.85;3.22;;;15.00;99.90;;;;;;5024034;28;20037;-67
2022/05/09 13:11:06;;;;;;;10.70;3.45;;;15.10;99.90;;;;;;5022661;28;20045;-67
2022/05/09 13:13:37;;;;;;;6.68;2.92;;;15.10;99.90;;;;;;5025555;28;20045;-67
2022/05/09 13:16:04;;;;;;;7.65;3.35;;;15.00;99.90;;;;;;5022743;28;20036;-67
2022/05/09 13:18:33;;;;;;;7.45;3.65;;;15.10;99.90;;;;;;5021968;28;20049;-67
2022/05/09 13:21:10;;;;;;;9.32;4.60;;;15.00;99.90;;;;;;5021434;28;20068;-68
2022/05/09 13:23:44;;;;;;;8.25;3.90;;;15.00;99.90;;;;;;5024937;28;20935;-68
2022/05/09 13:26:17;;;;;;;8.13;3.90;;;15.00;99.90;;;;;;5026954;28;20029;-67
2022/05/09 13:28:49;;;;;;;7.30;4.30;;;14.90;99.90;;;;;;5023080;28;20150;-68
2022/05/09 13:31:34;;;;;;;6.22;3.63;;;14.90;99.90;;;;;;5022997;28;20489;-67
2022/05/09 13:34:03;;;;;;;7.00;3.92;;;14.90;99.90;;;;;;5029243;28;20025;-68
2022/05/09 13:36:42;;;;;;;10.90;4.50;;;15.00;99.90;;;;;;5031126;28;20477;-68
2022/05/09 13:39:41;;;;;;;6.55;4.20;;;15.00;99.90;;;;;;5013933;28;20061;-68